< < Back
Terminal Aerodrome Forecast


Current Version              Previous Versions:   1  2  3  4  5  6  7  8  9  

Terminal Aerodrome Forecast

901
FTUS42 KGSP 270803 AAA
TAFAVL
TAF AMD
KAVL 270803Z 2708/2806 00000KT P6SM SCT003 BKN060
      TEMPO 2708/2712 5SM BR BKN003
     FM271400 VRB03KT P6SM SCT060
     FM271700 18006KT P6SM VCSH BKN050 PROB30 2718/2723 4SM -TSRA
      OVC035CB
     FM280200 17003KT P6SM SCT050 BKN200=



Latest METAR

308
SAUS70 KWBC 271600 RRD
MTRAVL
METAR KAVL 271554Z 18006KT 10SM CLR 25/16 A3018 RMK AO2 SLP195
T02500161


USA.gov is the U.S. government's official web portal to all federal, state and local government web resources and services.